createdAt,value
2019-02-05T00:01:53.864Z,4.12
2019-02-05T00:04:27.441Z,4.13
2019-02-05T00:06:59.341Z,4.01
2019-02-05T00:09:31.294Z,3.93
2019-02-05T00:12:03.997Z,3.87
2019-02-05T00:14:36.133Z,3.91
2019-02-05T00:17:09.839Z,3.95
2019-02-05T00:19:41.965Z,4.05
2019-02-05T00:22:15.704Z,4.08
2019-02-05T00:24:48.127Z,4.06
2019-02-05T00:27:20.220Z,3.96
2019-02-05T00:29:52.229Z,3.94
2019-02-05T00:32:24.204Z,3.94
2019-02-05T00:34:56.162Z,3.91
2019-02-05T00:37:28.119Z,3.91
2019-02-05T00:40:00.102Z,3.76
2019-02-05T00:42:32.176Z,3.67
2019-02-05T00:45:04.742Z,3.62
2019-02-05T00:47:36.684Z,3.49
2019-02-05T00:50:13.113Z,3.44
2019-02-05T00:52:45.883Z,3.42
2019-02-05T00:55:18.934Z,3.44
2019-02-05T00:57:51.994Z,3.47
2019-02-05T01:00:28.570Z,3.43
2019-02-05T01:03:02.413Z,3.40
2019-02-05T01:05:34.517Z,3.41
2019-02-05T01:08:06.672Z,3.47
2019-02-05T01:10:38.975Z,3.43
2019-02-05T01:13:12.339Z,3.42
2019-02-05T01:15:45.851Z,3.53
2019-02-05T01:18:17.863Z,3.60
2019-02-05T01:20:49.810Z,3.62
2019-02-05T01:23:21.949Z,3.61
2019-02-05T01:25:53.898Z,3.60
2019-02-05T01:28:25.809Z,3.55
2019-02-05T01:30:57.781Z,3.52
2019-02-05T01:33:29.867Z,3.56
2019-02-05T01:36:06.513Z,3.46
2019-02-05T01:38:37.560Z,3.46
2019-02-05T01:41:09.515Z,3.43
2019-02-05T01:43:41.539Z,3.40
2019-02-05T01:46:13.884Z,3.32
2019-02-05T01:48:46.526Z,3.27
2019-02-05T01:51:18.450Z,3.28
2019-02-05T01:53:50.506Z,3.30
2019-02-05T01:56:22.423Z,3.28
2019-02-05T01:58:54.929Z,3.27
2019-02-05T02:01:26.977Z,3.28
2019-02-05T02:03:59.008Z,3.29
2019-02-05T02:06:31.052Z,3.28
2019-02-05T02:09:04.516Z,3.29
2019-02-05T02:11:37.355Z,3.30
2019-02-05T02:14:09.332Z,3.25
2019-02-05T02:16:41.240Z,3.15
2019-02-05T02:19:13.140Z,3.13
2019-02-05T02:21:45.187Z,3.18
2019-02-05T02:24:17.095Z,3.12
2019-02-05T02:26:51.975Z,3.00
2019-02-05T02:29:23.538Z,2.81
2019-02-05T02:31:55.598Z,2.71
2019-02-05T02:34:27.983Z,2.68
2019-02-05T02:36:59.933Z,2.76
2019-02-05T02:39:31.829Z,2.84
2019-02-05T02:42:04.965Z,2.85
2019-02-05T02:44:37.155Z,2.99
2019-02-05T02:47:11.111Z,2.98
2019-02-05T02:49:43.514Z,2.97
2019-02-05T02:52:15.480Z,3.05
2019-02-05T02:54:47.402Z,2.99
2019-02-05T02:57:19.382Z,2.96
2019-02-05T02:59:51.342Z,2.95
2019-02-05T03:02:23.262Z,3.00
2019-02-05T03:04:55.369Z,3.00
2019-02-05T03:07:27.324Z,2.94
2019-02-05T03:09:59.283Z,2.83
2019-02-05T03:12:31.980Z,2.88
2019-02-05T03:15:04.074Z,2.86
2019-02-05T03:17:37.269Z,2.85
2019-02-05T03:20:09.802Z,2.77
2019-02-05T03:22:44.996Z,2.73
2019-02-05T03:25:17.618Z,2.69
2019-02-05T03:27:53.348Z,2.67
2019-02-05T03:30:25.817Z,2.66
2019-02-05T03:32:58.284Z,2.67
2019-02-05T03:35:30.280Z,2.59
2019-02-05T03:38:02.609Z,2.55
2019-02-05T03:41:05.134Z,2.55
2019-02-05T03:43:38.944Z,2.57
2019-02-05T03:46:18.986Z,2.43
2019-02-05T03:48:51.866Z,2.39
2019-02-05T03:52:05.251Z,2.37
2019-02-05T03:55:08.637Z,2.38
2019-02-05T03:58:07.236Z,2.36
2019-02-05T04:01:20.116Z,2.26
2019-02-05T04:04:27.196Z,2.42
2019-02-05T04:08:08.745Z,2.27
2019-02-05T04:11:12.002Z,2.28
2019-02-05T04:14:22.501Z,2.31
2019-02-05T04:17:39.339Z,2.40
2019-02-05T04:20:41.998Z,2.37
2019-02-05T04:24:15.808Z,2.33
2019-02-05T04:27:44.155Z,2.25
2019-02-05T04:30:59.605Z,2.22
2019-02-05T04:34:15.347Z,2.24
2019-02-05T04:37:23.321Z,2.29
2019-02-05T04:40:24.726Z,2.26
2019-02-05T04:43:28.234Z,2.28
2019-02-05T04:46:10.939Z,2.23
2019-02-05T04:49:24.567Z,2.29
2019-02-05T04:53:09.656Z,2.32
2019-02-05T04:56:11.246Z,2.18
2019-02-05T04:59:33.340Z,2.08
2019-02-05T05:02:37.578Z,2.03
2019-02-05T05:05:24.245Z,1.90
2019-02-05T05:08:06.920Z,1.80
2019-02-05T05:10:38.874Z,1.89
2019-02-05T05:13:10.775Z,1.99
2019-02-05T05:15:43.044Z,1.92
2019-02-05T05:18:16.666Z,1.91
2019-02-05T05:20:49.326Z,1.97
2019-02-05T05:23:21.353Z,1.99
2019-02-05T05:25:53.651Z,2.07
2019-02-05T05:28:26.089Z,2.18
2019-02-05T05:30:58.476Z,2.15
2019-02-05T05:33:30.421Z,2.20
2019-02-05T05:36:02.892Z,2.17
2019-02-05T05:38:36.553Z,2.14
2019-02-05T05:41:08.473Z,2.08
2019-02-05T05:43:41.341Z,2.11
2019-02-05T05:46:13.653Z,1.97
2019-02-05T05:48:45.614Z,1.89
2019-02-05T05:51:17.979Z,1.82
2019-02-05T05:53:49.916Z,1.74
2019-02-05T05:56:24.801Z,1.71
2019-02-05T05:58:56.838Z,1.83
2019-02-05T06:01:28.763Z,1.84
2019-02-05T06:04:00.730Z,1.86
2019-02-05T06:06:32.724Z,1.95
2019-02-05T06:09:07.629Z,1.92
2019-02-05T06:11:39.574Z,1.95
2019-02-05T06:14:11.475Z,1.96
2019-02-05T06:16:43.535Z,1.91
2019-02-05T06:19:15.564Z,1.88
2019-02-05T06:21:50.676Z,1.75
2019-02-05T06:24:23.295Z,1.71
2019-02-05T06:26:57.966Z,1.73
2019-02-05T06:29:30.522Z,1.75
2019-02-05T06:32:02.510Z,1.67
2019-02-05T06:34:35.660Z,1.62
2019-02-05T06:37:09.246Z,1.58
2019-02-05T06:39:41.658Z,1.60
2019-02-05T06:42:13.809Z,1.70
2019-02-05T06:44:45.809Z,1.61
2019-02-05T06:47:17.854Z,1.45
2019-02-05T06:49:49.799Z,1.43
2019-02-05T06:52:21.760Z,1.39
2019-02-05T06:54:56.222Z,1.40
2019-02-05T06:57:28.185Z,1.39
2019-02-05T07:00:00.670Z,1.39
2019-02-05T07:02:32.585Z,1.41
2019-02-05T07:05:05.576Z,1.46
2019-02-05T07:07:37.506Z,1.48
2019-02-05T07:10:14.760Z,1.52
2019-02-05T07:12:46.715Z,1.58
2019-02-05T07:15:18.995Z,1.62
2019-02-05T07:17:51.329Z,1.61
2019-02-05T07:20:23.332Z,1.57
2019-02-05T07:22:55.965Z,1.48
2019-02-05T07:25:28.090Z,1.52
2019-02-05T07:28:01.267Z,1.54
2019-02-05T07:30:33.386Z,1.43
2019-02-05T07:33:05.540Z,1.38
2019-02-05T07:35:37.718Z,1.36
2019-02-05T07:38:09.873Z,1.37
2019-02-05T07:40:42.337Z,1.39
2019-02-05T07:43:14.363Z,1.34
2019-02-05T07:45:46.416Z,1.33
2019-02-05T07:48:18.635Z,1.38
2019-02-05T07:50:51.089Z,1.46
2019-02-05T07:53:24.704Z,1.45
2019-02-05T07:55:56.772Z,1.48
2019-02-05T07:58:28.806Z,1.49
2019-02-05T08:01:02.101Z,1.58
2019-02-05T08:03:34.444Z,1.70
2019-02-05T08:06:06.636Z,1.72
2019-02-05T08:08:38.991Z,1.79
2019-02-05T08:11:12.969Z,1.85
2019-02-05T08:13:45.734Z,1.91
2019-02-05T08:16:17.792Z,1.94
2019-02-05T08:18:54.786Z,1.97
2019-02-05T08:21:26.722Z,2.10
2019-02-05T08:23:58.726Z,2.16
2019-02-05T08:26:30.756Z,2.26
2019-02-05T08:29:02.736Z,2.41
2019-02-05T08:31:35.561Z,2.52
2019-02-05T08:34:07.609Z,2.52
2019-02-05T08:36:40.871Z,2.56
2019-02-05T08:39:12.791Z,2.65
2019-02-05T08:41:47.432Z,2.74
2019-02-05T08:44:19.831Z,2.82
2019-02-05T08:46:52.777Z,2.88
2019-02-05T08:49:24.763Z,3.00
2019-02-05T08:51:56.687Z,3.12
2019-02-05T08:54:30.429Z,3.21
2019-02-05T08:57:02.830Z,3.34
2019-02-05T08:59:34.791Z,3.56
2019-02-05T09:02:08.953Z,3.77
2019-02-05T09:04:42.094Z,3.86
2019-02-05T09:07:15.439Z,4.09
2019-02-05T09:09:48.413Z,4.40
2019-02-05T09:12:20.350Z,4.47
2019-02-05T09:14:52.408Z,4.52
2019-02-05T09:17:25.983Z,4.62
2019-02-05T09:19:58.238Z,4.81
2019-02-05T09:22:30.673Z,5.05
2019-02-05T09:25:02.676Z,5.35
2019-02-05T09:27:34.653Z,5.62
2019-02-05T09:30:10.131Z,5.99
2019-02-05T09:32:43.323Z,6.50
2019-02-05T09:35:17.290Z,7.67
2019-02-05T09:37:49.606Z,10.29
2019-02-05T09:40:25.306Z,11.99
2019-02-05T09:42:57.375Z,12.76
2019-02-05T09:45:31.034Z,13.24
2019-02-05T09:48:03.340Z,15.22
2019-02-05T09:50:44.780Z,14.94
2019-02-05T09:53:12.344Z,15.63
2019-02-05T09:55:44.456Z,17.05
2019-02-05T09:58:16.582Z,19.29
2019-02-05T10:00:49.021Z,19.02
2019-02-05T10:03:20.980Z,19.84
2019-02-05T10:05:53.167Z,20.30
2019-02-05T10:08:26.827Z,20.89
2019-02-05T10:10:58.793Z,21.74
2019-02-05T10:13:30.785Z,20.92
2019-02-05T10:16:02.931Z,20.45
2019-02-05T10:18:34.881Z,19.79
2019-02-05T10:21:07.659Z,21.32
2019-02-05T10:23:39.584Z,21.76
2019-02-05T10:26:11.945Z,21.96
2019-02-05T10:28:44.041Z,20.52
2019-02-05T10:31:16.536Z,19.32
2019-02-05T10:33:55.292Z,20.05
2019-02-05T10:36:22.515Z,20.01
2019-02-05T10:38:55.500Z,18.85
2019-02-05T10:41:27.567Z,17.53
2019-02-05T10:43:59.659Z,17.16
2019-02-05T10:46:32.222Z,18.06
2019-02-05T10:49:04.367Z,19.62
2019-02-05T10:51:36.850Z,20.81
2019-02-05T10:54:08.989Z,22.62
2019-02-05T10:56:40.997Z,23.88
2019-02-05T10:59:13.180Z,22.99
2019-02-05T11:01:45.175Z,23.25
2019-02-05T11:04:17.537Z,24.41
2019-02-05T11:06:51.979Z,25.31
2019-02-05T11:09:23.915Z,25.32
2019-02-05T11:11:55.946Z,23.23
2019-02-05T11:14:27.932Z,23.66
2019-02-05T11:17:00.352Z,22.60
2019-02-05T11:19:32.342Z,22.08
2019-02-05T11:22:04.577Z,22.62
2019-02-05T11:24:36.649Z,23.32
2019-02-05T11:27:08.688Z,26.07
2019-02-05T11:29:40.649Z,26.91
2019-02-05T11:32:12.750Z,26.58
2019-02-05T11:34:46.761Z,25.83
2019-02-05T11:37:18.999Z,25.85
2019-02-05T11:39:51.367Z,26.38
2019-02-05T11:42:24.645Z,26.83
2019-02-05T11:44:56.694Z,27.75
2019-02-05T11:47:29.382Z,28.40
2019-02-05T11:50:01.458Z,28.21
2019-02-05T11:52:33.607Z,27.74
2019-02-05T11:55:06.263Z,28.59
2019-02-05T11:57:38.473Z,28.65
2019-02-05T12:00:15.068Z,28.62
2019-02-05T12:02:49.064Z,27.08
2019-02-05T12:05:21.656Z,27.82
2019-02-05T12:07:53.606Z,29.85
2019-02-05T12:10:25.599Z,30.92
2019-02-05T12:12:57.613Z,29.02
2019-02-05T12:15:31.255Z,29.02
2019-02-05T12:18:03.470Z,28.52
2019-02-05T12:20:35.451Z,26.42
2019-02-05T12:23:08.005Z,25.87
2019-02-05T12:25:40.095Z,27.31
2019-02-05T12:28:12.065Z,27.49
2019-02-05T12:30:45.526Z,28.75
2019-02-05T12:33:18.064Z,27.16
2019-02-05T12:35:53.443Z,28.47
2019-02-05T12:38:26.216Z,28.30
2019-02-05T12:40:58.301Z,27.53
2019-02-05T12:43:30.311Z,27.92
2019-02-05T12:46:02.801Z,27.19
2019-02-05T12:48:34.747Z,27.21
2019-02-05T12:51:07.273Z,25.38
2019-02-05T12:53:39.215Z,26.22
2019-02-05T12:56:11.223Z,28.22
2019-02-05T12:58:43.255Z,27.14
2019-02-05T13:01:15.651Z,28.98
2019-02-05T13:03:47.677Z,28.26
2019-02-05T13:06:19.594Z,27.72
2019-02-05T13:08:52.665Z,27.05
2019-02-05T13:11:24.743Z,26.94
2019-02-05T13:13:56.682Z,26.44
2019-02-05T13:16:28.722Z,25.19
2019-02-05T13:19:00.842Z,23.98
2019-02-05T13:21:34.277Z,22.44
2019-02-05T13:24:08.151Z,20.85
2019-02-05T13:26:40.852Z,19.64
2019-02-05T13:29:12.826Z,19.07
2019-02-05T13:31:44.810Z,18.65
2019-02-05T13:34:17.067Z,18.49
2019-02-05T13:36:49.056Z,18.21
2019-02-05T13:39:20.995Z,17.65
2019-02-05T13:41:53.062Z,17.82
2019-02-05T13:44:27.081Z,17.76
2019-02-05T13:47:01.812Z,17.61
2019-02-05T13:49:33.777Z,17.80
2019-02-05T13:52:07.350Z,17.73
2019-02-05T13:54:39.432Z,17.88
2019-02-05T13:57:11.403Z,18.02
2019-02-05T13:59:43.745Z,17.72
2019-02-05T14:02:15.709Z,17.83
2019-02-05T14:04:47.718Z,18.23
2019-02-05T14:07:19.750Z,17.85
2019-02-05T14:09:51.736Z,17.84
2019-02-05T14:12:24.034Z,17.78
2019-02-05T14:14:56.021Z,17.87
2019-02-05T14:17:28.072Z,18.06
2019-02-05T14:20:00.053Z,18.10
2019-02-05T14:22:32.105Z,18.38
2019-02-05T14:25:05.295Z,18.38
2019-02-05T14:27:37.338Z,18.35
2019-02-05T14:30:16.583Z,18.50
2019-02-05T14:32:48.623Z,18.52
2019-02-05T14:35:20.636Z,18.30
2019-02-05T14:37:52.625Z,18.08
2019-02-05T14:40:28.533Z,18.15
2019-02-05T14:43:00.518Z,18.16
2019-02-05T14:45:32.619Z,17.87
2019-02-05T14:48:05.578Z,17.94
2019-02-05T14:50:37.875Z,18.07
2019-02-05T14:53:10.982Z,17.91
2019-02-05T14:55:43.071Z,18.18
2019-02-05T14:58:16.496Z,17.85
2019-02-05T15:00:48.524Z,17.70
2019-02-05T15:03:20.609Z,17.61
2019-02-05T15:05:52.585Z,17.73
2019-02-05T15:08:24.605Z,17.72
2019-02-05T15:10:57.814Z,17.56
2019-02-05T15:13:32.021Z,17.53
2019-02-05T15:16:04.128Z,17.42
2019-02-05T15:18:36.094Z,17.43
2019-02-05T15:21:08.339Z,17.19
2019-02-05T15:23:41.521Z,17.25
2019-02-05T15:26:13.690Z,17.24
2019-02-05T15:28:45.677Z,17.16
2019-02-05T15:31:17.690Z,17.17
2019-02-05T15:34:03.238Z,17.18
2019-02-05T15:36:37.222Z,17.20
2019-02-05T15:39:14.805Z,17.14
2019-02-05T15:41:46.857Z,17.18
2019-02-05T15:44:19.120Z,17.09
2019-02-05T15:46:51.188Z,17.10
2019-02-05T15:49:23.230Z,17.12
2019-02-05T15:51:55.468Z,17.12
2019-02-05T15:54:29.884Z,16.98
2019-02-05T15:57:01.857Z,17.09
2019-02-05T15:59:35.459Z,17.00
2019-02-05T16:02:07.931Z,17.05
2019-02-05T16:04:40.267Z,16.96
2019-02-05T16:07:12.412Z,17.05
2019-02-05T16:09:44.378Z,17.06
2019-02-05T16:12:16.399Z,16.92
2019-02-05T16:14:48.366Z,16.96
2019-02-05T16:17:20.488Z,16.90
2019-02-05T16:19:52.850Z,16.86
2019-02-05T16:22:24.803Z,16.91
2019-02-05T16:24:56.878Z,16.83
2019-02-05T16:27:30.768Z,16.80
2019-02-05T16:30:02.752Z,16.83
2019-02-05T16:32:35.021Z,16.71
2019-02-05T16:35:09.267Z,16.75
2019-02-05T16:37:41.488Z,16.66
2019-02-05T16:40:16.566Z,16.69
2019-02-05T16:42:50.828Z,16.57
2019-02-05T16:45:25.133Z,16.48
2019-02-05T16:47:58.274Z,16.50
2019-02-05T16:50:33.073Z,16.37
2019-02-05T16:53:05.751Z,16.17
2019-02-05T16:55:40.625Z,16.11
2019-02-05T16:58:13.170Z,16.12
2019-02-05T17:00:45.176Z,15.98
2019-02-05T17:03:17.177Z,15.86
2019-02-05T17:05:49.286Z,15.68
2019-02-05T17:08:21.394Z,15.49
2019-02-05T17:10:53.369Z,15.43
2019-02-05T17:13:25.308Z,15.36
2019-02-05T17:15:57.614Z,15.30
2019-02-05T17:18:32.030Z,15.12
2019-02-05T17:21:06.352Z,15.00
2019-02-05T17:23:40.612Z,15.01
2019-02-05T17:26:14.259Z,14.85
2019-02-05T17:28:46.181Z,14.73
2019-02-05T17:31:18.166Z,14.59
2019-02-05T17:33:50.205Z,14.48
2019-02-05T17:36:22.369Z,14.35
2019-02-05T17:38:54.411Z,14.24
2019-02-05T17:41:26.417Z,14.08
2019-02-05T17:43:58.482Z,13.98
2019-02-05T17:46:33.118Z,13.87
2019-02-05T17:49:12.033Z,13.80
2019-02-05T17:51:44.138Z,13.66
2019-02-05T17:54:16.400Z,13.54
2019-02-05T17:56:48.380Z,13.50
2019-02-05T17:59:20.313Z,13.39
2019-02-05T18:01:52.280Z,13.26
2019-02-05T18:04:24.807Z,13.19
2019-02-05T18:06:57.657Z,13.06
2019-02-05T18:09:30.213Z,13.02
2019-02-05T18:12:03.274Z,12.92
2019-02-05T18:14:35.215Z,12.85
2019-02-05T18:17:07.702Z,12.67
2019-02-05T18:19:39.716Z,12.52
2019-02-05T18:22:13.466Z,12.40
2019-02-05T18:24:45.520Z,12.30
2019-02-05T18:27:17.552Z,12.19
2019-02-05T18:29:50.034Z,12.10
2019-02-05T18:32:22.093Z,11.95
2019-02-05T18:34:54.086Z,11.81
2019-02-05T18:37:26.225Z,11.72
2019-02-05T18:40:00.845Z,11.65
2019-02-05T18:42:35.239Z,11.57
2019-02-05T18:45:08.295Z,11.43
2019-02-05T18:47:40.288Z,11.33
2019-02-05T18:50:15.393Z,11.21
2019-02-05T18:52:50.131Z,11.15
2019-02-05T18:55:23.693Z,11.06
2019-02-05T18:57:55.955Z,11.00
2019-02-05T19:00:30.442Z,10.96
2019-02-05T19:03:14.445Z,10.89
2019-02-05T19:05:42.464Z,10.81
2019-02-05T19:08:16.611Z,10.73
2019-02-05T19:10:49.096Z,10.66
2019-02-05T19:13:21.082Z,10.59
2019-02-05T19:15:53.511Z,10.55
2019-02-05T19:18:25.448Z,10.40
2019-02-05T19:20:58.733Z,10.31
2019-02-05T19:23:30.725Z,10.21
2019-02-05T19:26:18.766Z,10.14
2019-02-05T19:28:53.826Z,10.08
2019-02-05T19:31:38.246Z,10.08
2019-02-05T19:34:10.862Z,9.89
2019-02-05T19:36:43.595Z,10.02
2019-02-05T19:39:15.673Z,9.96
2019-02-05T19:41:47.763Z,9.83
2019-02-05T19:44:19.814Z,9.79
2019-02-05T19:47:07.544Z,9.73
2019-02-05T19:49:45.742Z,9.63
2019-02-05T19:52:17.722Z,9.61
2019-02-05T19:54:49.687Z,9.54
2019-02-05T19:57:24.364Z,9.32
2019-02-05T19:59:56.720Z,9.36
2019-02-05T20:02:28.661Z,9.35
2019-02-05T20:05:01.119Z,9.33
2019-02-05T20:07:36.457Z,9.33
2019-02-05T20:10:09.298Z,9.36
2019-02-05T20:12:41.343Z,9.34
2019-02-05T20:15:13.954Z,9.34
2019-02-05T20:17:45.889Z,9.29
2019-02-05T20:20:18.066Z,9.27
2019-02-05T20:22:53.197Z,9.26
2019-02-05T20:25:25.702Z,9.10
2019-02-05T20:27:57.730Z,9.08
2019-02-05T20:30:29.771Z,9.07
2019-02-05T20:33:01.742Z,9.09
2019-02-05T20:35:34.161Z,8.94
2019-02-05T20:38:06.716Z,8.89
2019-02-05T20:40:39.764Z,8.93
2019-02-05T20:43:11.803Z,8.83
2019-02-05T20:45:43.787Z,8.73
2019-02-05T20:48:16.152Z,8.81
2019-02-05T20:50:48.584Z,8.69
2019-02-05T20:53:33.374Z,8.61
2019-02-05T20:56:09.029Z,8.60
2019-02-05T20:58:41.253Z,8.61
2019-02-05T21:01:13.550Z,8.51
2019-02-05T21:03:45.546Z,8.43
2019-02-05T21:06:17.508Z,8.36
2019-02-05T21:08:50.266Z,8.23
2019-02-05T21:11:22.223Z,8.20
2019-02-05T21:13:54.350Z,8.11
2019-02-05T21:16:26.907Z,8.12
2019-02-05T21:18:58.880Z,8.02
2019-02-05T21:21:30.889Z,7.98
2019-02-05T21:24:02.909Z,8.07
2019-02-05T21:26:34.992Z,8.05
2019-02-05T21:29:08.382Z,8.13
2019-02-05T21:31:40.630Z,8.13
2019-02-05T21:34:15.972Z,8.10
2019-02-05T21:36:48.297Z,8.02
2019-02-05T21:39:20.636Z,7.91
2019-02-05T21:41:52.651Z,7.90
2019-02-05T21:44:24.623Z,7.80
2019-02-05T21:46:56.664Z,7.80
2019-02-05T21:49:29.210Z,7.74
2019-02-05T21:52:04.084Z,7.71
2019-02-05T21:54:36.052Z,7.69
2019-02-05T21:57:08.173Z,7.69
2019-02-05T21:59:40.759Z,7.54
2019-02-05T22:02:13.064Z,7.44
2019-02-05T22:04:46.441Z,7.43
2019-02-05T22:07:18.539Z,7.47
2019-02-05T22:09:50.471Z,7.47
2019-02-05T22:12:22.461Z,7.43
2019-02-05T22:14:54.438Z,7.41
2019-02-05T22:17:26.913Z,7.41
2019-02-05T22:20:03.916Z,7.32
2019-02-05T22:22:42.518Z,7.23
2019-02-05T22:25:31.247Z,7.14
2019-02-05T22:28:14.933Z,7.06
2019-02-05T22:31:04.961Z,7.01
2019-02-05T22:33:42.404Z,6.92
2019-02-05T22:36:22.952Z,6.88
2019-02-05T22:39:17.707Z,6.84
2019-02-05T22:42:00.772Z,6.76
2019-02-05T22:45:05.200Z,6.82
2019-02-05T22:47:52.595Z,6.88
2019-02-05T22:54:07.495Z,6.82
2019-02-05T22:56:53.523Z,6.91
2019-02-05T22:59:48.346Z,6.92
2019-02-05T23:02:21.118Z,6.84
2019-02-05T23:05:23.177Z,6.73
2019-02-05T23:07:55.487Z,6.50
2019-02-05T23:11:16.707Z,6.47
2019-02-05T23:13:49.471Z,6.40
2019-02-05T23:16:22.967Z,6.40
2019-02-05T23:18:55.090Z,6.30
2019-02-05T23:21:27.535Z,6.27
2019-02-05T23:24:00.876Z,6.33
2019-02-05T23:26:36.608Z,6.16
2019-02-05T23:29:10.676Z,6.06
2019-02-05T23:31:52.262Z,5.97
2019-02-05T23:35:02.250Z,5.99
2019-02-05T23:37:37.739Z,5.99
2019-02-05T23:40:22.800Z,6.04
2019-02-05T23:42:57.240Z,6.09
2019-02-05T23:45:35.749Z,6.08
2019-02-05T23:48:10.684Z,6.00
2019-02-05T23:50:49.682Z,5.95
2019-02-05T23:53:27.307Z,5.87
2019-02-05T23:56:02.994Z,5.83
2019-02-05T23:58:39.924Z,5.75
